Greenhithe, United Kingdom
Current Conditions -  °F | °C
As of 5:20 AM on Tuesday 27 Jan 2015 (Local Time) from EGLC Reporting Station
Clear Clear  
Wind Chill:   Ceiling: Unl
Heat Index:   Visibility: 6mi
Dew Point:   Wind: 8mph
Humidity: 81%   Direction: 290°WNW
Pressure: 30.36"   Gusts: NA
Location:  51.45°N, 0.28°E
Report Text: EGLC 270520Z AUTO 29007KT 9999 NCD 05/02 Q1028
Loading
Personal Weather Stations






























Interactive Weather Map New forecast layout! Learn more

10-Day Weather Forecast

Advertisements
Track Severe Weather on mobile